createdAt,value
2018-07-26T00:02:20.975Z,99.90
2018-07-26T00:04:48.353Z,99.90
2018-07-26T00:07:15.773Z,99.90
2018-07-26T00:09:43.697Z,99.90
2018-07-26T00:12:11.123Z,99.90
2018-07-26T00:14:38.609Z,99.90
2018-07-26T00:17:06.121Z,99.90
2018-07-26T00:19:33.577Z,99.90
2018-07-26T00:22:01.026Z,99.90
2018-07-26T00:24:28.358Z,99.90
2018-07-26T00:26:55.849Z,99.90
2018-07-26T00:29:23.274Z,99.90
2018-07-26T00:31:50.573Z,99.90
2018-07-26T00:34:17.939Z,99.90
2018-07-26T00:36:45.347Z,99.90
2018-07-26T00:41:40.147Z,99.90
2018-07-26T00:44:08.075Z,99.90
2018-07-26T00:46:35.399Z,99.90
2018-07-26T00:49:02.743Z,99.90
2018-07-26T00:51:30.201Z,99.90
2018-07-26T00:53:57.647Z,99.90
2018-07-26T00:56:24.972Z,99.90
2018-07-26T00:58:52.331Z,99.90
2018-07-26T01:01:19.693Z,99.90
2018-07-26T01:03:47.022Z,99.90
2018-07-26T01:06:14.358Z,99.90
2018-07-26T01:08:41.686Z,99.90
2018-07-26T01:11:09.152Z,99.90
2018-07-26T01:13:36.603Z,99.90
2018-07-26T01:16:04.394Z,99.90
2018-07-26T01:18:31.713Z,99.90
2018-07-26T01:20:59.110Z,99.90
2018-07-26T01:23:26.592Z,99.90
2018-07-26T01:25:54.266Z,99.90
2018-07-26T01:28:21.928Z,99.90
2018-07-26T01:30:49.290Z,99.90
2018-07-26T01:33:17.072Z,99.90
2018-07-26T01:35:44.478Z,99.90
2018-07-26T01:38:12.037Z,99.90
2018-07-26T01:40:39.426Z,99.90
2018-07-26T01:44:23.158Z,99.90
2018-07-26T01:46:50.579Z,99.90
2018-07-26T01:49:18.181Z,99.90
2018-07-26T01:51:45.646Z,99.90
2018-07-26T01:54:13.053Z,99.90
2018-07-26T01:56:40.497Z,99.90
2018-07-26T01:59:07.850Z,99.90
2018-07-26T02:01:35.251Z,99.90
2018-07-26T02:04:02.616Z,99.90
2018-07-26T02:06:30.078Z,99.90
2018-07-26T02:08:57.444Z,99.90
2018-07-26T02:11:24.904Z,99.90
2018-07-26T02:13:52.310Z,99.90
2018-07-26T02:16:19.602Z,99.90
2018-07-26T02:18:46.991Z,99.90
2018-07-26T02:21:14.331Z,99.90
2018-07-26T02:23:41.745Z,99.90
2018-07-26T02:26:09.226Z,99.90
2018-07-26T02:28:36.613Z,99.90
2018-07-26T02:31:04.150Z,99.90
2018-07-26T02:33:31.452Z,99.90
2018-07-26T02:35:58.903Z,99.90
2018-07-26T02:38:26.272Z,99.90
2018-07-26T02:40:53.695Z,99.90
2018-07-26T02:43:21.007Z,99.90
2018-07-26T02:45:48.451Z,99.90
2018-07-26T02:48:15.856Z,99.90
2018-07-26T02:50:43.298Z,99.90
2018-07-26T02:53:10.666Z,99.90
2018-07-26T02:55:38.133Z,99.90
2018-07-26T02:58:05.569Z,99.90
2018-07-26T03:00:32.967Z,99.90
2018-07-26T03:03:00.321Z,99.90
2018-07-26T03:05:27.709Z,99.90
2018-07-26T03:07:55.145Z,99.90
2018-07-26T03:10:22.485Z,99.90
2018-07-26T03:12:51.943Z,99.90
2018-07-26T03:15:19.442Z,99.90
2018-07-26T03:17:46.929Z,99.90
2018-07-26T03:20:14.391Z,99.90
2018-07-26T03:22:41.813Z,99.90
2018-07-26T03:25:09.233Z,99.90
2018-07-26T03:27:36.604Z,99.90
2018-07-26T03:30:07.031Z,99.90
2018-07-26T03:32:34.421Z,99.90
2018-07-26T03:35:01.799Z,99.90
2018-07-26T03:37:29.122Z,99.90
2018-07-26T03:39:56.592Z,99.90
2018-07-26T03:42:23.995Z,99.90
2018-07-26T03:44:51.326Z,99.90
2018-07-26T03:47:18.766Z,99.90
2018-07-26T03:49:46.196Z,99.90
2018-07-26T03:52:13.576Z,99.90
2018-07-26T03:54:40.965Z,99.90
2018-07-26T03:57:08.345Z,99.90
2018-07-26T04:02:03.010Z,99.90
2018-07-26T04:04:30.415Z,99.90
2018-07-26T04:06:57.844Z,99.90
2018-07-26T04:09:25.229Z,99.90
2018-07-26T04:12:00.454Z,99.90
2018-07-26T04:14:27.787Z,99.90
2018-07-26T04:16:55.228Z,99.90
2018-07-26T04:19:22.630Z,99.90
2018-07-26T04:21:50.078Z,99.90
2018-07-26T04:24:17.462Z,99.90
2018-07-26T04:26:44.782Z,99.90
2018-07-26T04:29:12.224Z,99.90
2018-07-26T04:31:44.638Z,99.90
2018-07-26T04:34:13.578Z,99.90
2018-07-26T04:36:41.016Z,99.90
2018-07-26T04:39:21.110Z,99.90
2018-07-26T04:41:48.506Z,99.90
2018-07-26T04:44:15.988Z,99.90
2018-07-26T04:47:50.566Z,99.90
2018-07-26T04:50:18.036Z,99.90
2018-07-26T04:52:45.420Z,99.90
2018-07-26T04:55:12.822Z,99.90
2018-07-26T04:57:40.226Z,99.90
2018-07-26T05:00:07.782Z,99.90
2018-07-26T05:02:35.390Z,99.90
2018-07-26T05:05:03.133Z,99.90
2018-07-26T05:07:30.578Z,99.90
2018-07-26T05:09:57.966Z,99.90
2018-07-26T05:14:52.793Z,99.90
2018-07-26T05:17:20.521Z,99.90
2018-07-26T05:19:47.934Z,99.90
2018-07-26T05:22:15.433Z,99.90
2018-07-26T05:24:42.911Z,99.90
2018-07-26T05:27:10.418Z,99.90
2018-07-26T05:29:37.990Z,99.90
2018-07-26T05:32:05.407Z,99.90
2018-07-26T05:34:32.801Z,99.90
2018-07-26T05:37:00.230Z,99.90
2018-07-26T05:39:27.695Z,99.90
2018-07-26T05:41:55.040Z,99.90
2018-07-26T05:44:22.456Z,99.90
2018-07-26T05:46:49.813Z,99.90
2018-07-26T05:49:17.228Z,99.90
2018-07-26T05:51:44.615Z,99.90
2018-07-26T05:54:12.020Z,99.90
2018-07-26T05:56:39.483Z,99.90
2018-07-26T05:59:06.849Z,99.90
2018-07-26T06:01:34.234Z,99.90
2018-07-26T06:04:01.616Z,99.90
2018-07-26T06:06:29.157Z,99.90
2018-07-26T06:08:56.487Z,99.90
2018-07-26T06:11:23.881Z,99.90
2018-07-26T06:13:51.233Z,99.90
2018-07-26T06:16:18.664Z,99.90
2018-07-26T06:18:46.074Z,99.90
2018-07-26T06:21:13.404Z,99.90
2018-07-26T06:23:40.912Z,99.90
2018-07-26T06:26:08.263Z,99.90
2018-07-26T06:28:35.594Z,99.90
2018-07-26T06:31:03.053Z,99.90
2018-07-26T06:33:30.476Z,99.90
2018-07-26T06:35:57.932Z,99.90
2018-07-26T06:38:25.383Z,99.90
2018-07-26T06:40:52.815Z,99.90
2018-07-26T06:43:20.158Z,99.90
2018-07-26T06:45:47.597Z,99.90
2018-07-26T06:48:15.025Z,99.90
2018-07-26T06:50:42.421Z,99.90
2018-07-26T06:53:09.911Z,99.90
2018-07-26T06:55:37.352Z,99.90
2018-07-26T06:58:04.823Z,99.90
2018-07-26T07:00:32.225Z,99.90
2018-07-26T07:02:59.665Z,99.90
2018-07-26T07:05:27.090Z,99.90
2018-07-26T07:07:54.464Z,99.90
2018-07-26T07:10:21.975Z,99.90
2018-07-26T07:12:49.339Z,99.90
2018-07-26T07:15:16.735Z,99.90
2018-07-26T07:17:44.164Z,99.90
2018-07-26T07:20:12.186Z,99.90
2018-07-26T07:22:39.489Z,99.90
2018-07-26T07:25:06.976Z,99.90
2018-07-26T07:27:34.449Z,99.90
2018-07-26T07:30:01.970Z,99.90
2018-07-26T07:32:29.322Z,99.90
2018-07-26T07:34:56.758Z,99.90
2018-07-26T07:37:25.144Z,99.90
2018-07-26T07:39:52.507Z,99.90
2018-07-26T07:42:19.903Z,99.90
2018-07-26T07:44:47.366Z,99.90
2018-07-26T07:47:14.724Z,99.90
2018-07-26T07:49:42.174Z,99.90
2018-07-26T07:52:09.563Z,99.90
2018-07-26T07:54:37.030Z,99.90
2018-07-26T07:57:04.938Z,99.90
2018-07-26T07:59:32.373Z,99.90
2018-07-26T08:01:59.747Z,99.90
2018-07-26T08:04:27.098Z,99.90
2018-07-26T08:06:54.622Z,99.90
2018-07-26T08:09:22.045Z,99.90
2018-07-26T08:11:49.437Z,99.90
2018-07-26T08:14:16.872Z,99.90
2018-07-26T08:16:44.241Z,99.90
2018-07-26T08:19:11.722Z,99.90
2018-07-26T08:21:39.201Z,99.90
2018-07-26T08:24:06.627Z,99.90
2018-07-26T08:26:34.024Z,99.90
2018-07-26T08:29:01.410Z,99.90
2018-07-26T08:31:28.881Z,99.90
2018-07-26T08:33:56.258Z,99.90
2018-07-26T08:36:23.614Z,99.90
2018-07-26T08:38:50.988Z,99.90
2018-07-26T08:41:18.802Z,99.90
2018-07-26T08:43:46.255Z,99.90
2018-07-26T08:48:41.146Z,99.90
2018-07-26T08:51:08.569Z,99.90
2018-07-26T08:53:36.066Z,99.90
2018-07-26T08:56:03.505Z,99.90
2018-07-26T08:58:30.878Z,99.90
2018-07-26T09:00:58.209Z,99.90
2018-07-26T09:03:25.606Z,99.90
2018-07-26T09:05:53.022Z,99.90
2018-07-26T09:08:20.403Z,99.90
2018-07-26T09:10:47.882Z,99.90
2018-07-26T09:13:15.258Z,99.90
2018-07-26T09:15:42.713Z,99.90
2018-07-26T09:18:10.241Z,99.90
2018-07-26T09:20:37.695Z,99.90
2018-07-26T09:23:05.130Z,99.90
2018-07-26T09:25:32.464Z,99.90
2018-07-26T09:27:59.927Z,99.90
2018-07-26T09:30:27.374Z,99.90
2018-07-26T09:32:54.800Z,99.90
2018-07-26T09:35:22.227Z,99.90
2018-07-26T09:37:49.586Z,99.90
2018-07-26T09:42:44.223Z,99.90
2018-07-26T09:45:11.718Z,99.90
2018-07-26T09:47:39.129Z,99.90
2018-07-26T09:50:07.027Z,99.90
2018-07-26T09:52:34.460Z,99.90
2018-07-26T09:55:01.915Z,99.90
2018-07-26T09:57:29.354Z,99.90
2018-07-26T09:59:56.761Z,99.90
2018-07-26T10:02:24.158Z,99.90
2018-07-26T10:04:51.461Z,99.90
2018-07-26T10:07:18.906Z,99.90
2018-07-26T10:09:46.226Z,99.90
2018-07-26T10:12:13.642Z,99.90
2018-07-26T10:14:41.183Z,99.30
2018-07-26T10:17:08.529Z,99.10
2018-07-26T10:19:35.897Z,99.90
2018-07-26T10:22:03.335Z,99.20
2018-07-26T10:24:30.679Z,99.10
2018-07-26T10:26:58.093Z,99.10
2018-07-26T10:29:25.499Z,99.10
2018-07-26T10:31:52.968Z,98.40
2018-07-26T10:34:20.343Z,98.60
2018-07-26T10:36:49.370Z,98.80
2018-07-26T10:39:17.353Z,99.30
2018-07-26T10:41:45.801Z,97.00
2018-07-26T10:44:13.200Z,97.10
2018-07-26T10:46:42.182Z,95.50
2018-07-26T10:49:09.645Z,96.00
2018-07-26T10:51:37.129Z,94.70
2018-07-26T10:54:04.523Z,94.10
2018-07-26T10:56:31.956Z,95.20
2018-07-26T10:58:59.959Z,92.90
2018-07-26T11:01:28.005Z,93.80
2018-07-26T11:03:56.097Z,93.20
2018-07-26T11:06:23.455Z,95.20
2018-07-26T11:08:50.887Z,94.70
2018-07-26T11:11:18.231Z,94.40
2018-07-26T11:13:45.613Z,94.80
2018-07-26T11:16:13.069Z,93.70
2018-07-26T11:18:50.280Z,93.40
2018-07-26T11:21:17.814Z,95.20
2018-07-26T11:23:45.358Z,92.30
2018-07-26T11:26:12.949Z,92.80
2018-07-26T11:31:07.877Z,93.80
2018-07-26T11:33:35.306Z,93.30
2018-07-26T11:36:02.852Z,93.10
2018-07-26T11:38:30.318Z,92.50
2018-07-26T11:40:57.834Z,91.70
2018-07-26T11:43:25.315Z,91.60
2018-07-26T11:45:52.699Z,92.40
2018-07-26T11:48:20.109Z,91.90
2018-07-26T11:50:47.548Z,92.50
2018-07-26T11:53:14.963Z,91.90
2018-07-26T11:55:42.432Z,91.70
2018-07-26T11:58:09.903Z,91.80
2018-07-26T12:00:37.253Z,91.30
2018-07-26T12:03:04.669Z,91.40
2018-07-26T12:05:32.158Z,91.20
2018-07-26T12:08:00.290Z,90.30
2018-07-26T12:10:27.743Z,91.50
2018-07-26T12:12:55.143Z,91.30
2018-07-26T12:15:22.512Z,90.80
2018-07-26T12:17:50.933Z,90.30
2018-07-26T12:20:18.331Z,90.10
2018-07-26T12:22:45.765Z,90.40
2018-07-26T12:25:13.142Z,89.20
2018-07-26T12:27:41.760Z,90.90
2018-07-26T12:30:09.711Z,88.00
2018-07-26T12:35:05.387Z,88.00
2018-07-26T12:37:33.489Z,87.90
2018-07-26T12:40:00.832Z,87.20
2018-07-26T12:42:29.184Z,87.70
2018-07-26T12:44:56.563Z,90.40
2018-07-26T12:47:24.453Z,90.60
2018-07-26T12:49:51.816Z,90.40
2018-07-26T12:52:20.526Z,88.00
2018-07-26T12:54:48.832Z,89.20
2018-07-26T12:57:16.415Z,92.10
2018-07-26T12:59:43.890Z,87.80
2018-07-26T13:02:11.551Z,89.30
2018-07-26T13:04:39.000Z,87.80
2018-07-26T13:07:06.425Z,87.70
2018-07-26T13:09:33.782Z,87.90
2018-07-26T13:12:01.526Z,86.90
2018-07-26T13:14:28.898Z,88.90
2018-07-26T13:16:56.357Z,91.30
2018-07-26T13:19:23.810Z,90.30
2018-07-26T13:21:51.105Z,87.80
2018-07-26T13:24:18.654Z,88.40
2018-07-26T13:26:46.150Z,88.90
2018-07-26T13:29:13.438Z,90.00
2018-07-26T13:31:40.865Z,88.80
2018-07-26T13:36:42.583Z,85.50
2018-07-26T13:39:12.670Z,85.80
2018-07-26T13:41:40.014Z,89.30
2018-07-26T13:46:34.773Z,88.30
2018-07-26T13:49:02.299Z,86.50
2018-07-26T13:51:29.763Z,88.60
2018-07-26T13:53:57.214Z,82.20
2018-07-26T13:56:24.629Z,83.70
2018-07-26T13:58:52.009Z,85.40
2018-07-26T14:01:19.387Z,82.70
2018-07-26T14:03:46.865Z,80.90
2018-07-26T14:06:14.317Z,81.10
2018-07-26T14:08:41.725Z,81.00
2018-07-26T14:11:09.153Z,81.50
2018-07-26T14:13:36.493Z,84.50
2018-07-26T14:16:04.209Z,80.70
2018-07-26T14:18:31.639Z,80.80
2018-07-26T14:20:59.057Z,78.40
2018-07-26T14:23:32.158Z,78.60
2018-07-26T14:26:00.367Z,79.40
2018-07-26T14:28:28.331Z,78.40
2018-07-26T14:30:55.696Z,75.70
2018-07-26T14:33:23.039Z,76.20
2018-07-26T14:35:50.537Z,79.30
2018-07-26T14:38:18.665Z,81.50
2018-07-26T14:40:46.120Z,81.80
2018-07-26T14:43:13.636Z,76.60
2018-07-26T14:45:41.817Z,77.70
2018-07-26T14:48:09.234Z,76.40
2018-07-26T14:50:36.678Z,82.30
2018-07-26T14:53:04.045Z,78.10
2018-07-26T14:55:31.863Z,76.40
2018-07-26T14:57:59.327Z,76.90
2018-07-26T15:00:26.824Z,78.10
2018-07-26T15:02:54.256Z,77.40
2018-07-26T15:05:21.749Z,75.70
2018-07-26T15:07:49.130Z,75.60
2018-07-26T15:10:16.450Z,75.10
2018-07-26T15:12:43.840Z,77.80
2018-07-26T15:15:12.587Z,76.50
2018-07-26T15:17:40.645Z,78.70
2018-07-26T15:20:08.131Z,81.60
2018-07-26T15:22:35.594Z,79.30
2018-07-26T15:25:02.958Z,80.20
2018-07-26T15:27:31.238Z,81.10
2018-07-26T15:29:58.718Z,80.30
2018-07-26T15:32:26.141Z,80.90
2018-07-26T15:34:53.682Z,77.70
2018-07-26T15:37:21.076Z,77.20
2018-07-26T15:39:48.418Z,78.90
2018-07-26T15:42:15.864Z,81.30
2018-07-26T15:47:11.085Z,81.50
2018-07-26T15:49:39.454Z,81.00
2018-07-26T15:52:06.924Z,82.20
2018-07-26T15:54:34.334Z,78.50
2018-07-26T15:57:01.713Z,78.80
2018-07-26T15:59:29.575Z,79.40
2018-07-26T16:01:57.152Z,81.80
2018-07-26T16:04:24.556Z,80.50
2018-07-26T16:06:52.031Z,81.30
2018-07-26T16:09:19.508Z,81.60
2018-07-26T16:11:46.888Z,79.20
2018-07-26T16:14:14.338Z,80.90
2018-07-26T16:16:42.369Z,80.80
2018-07-26T16:19:09.917Z,79.60
2018-07-26T16:21:38.143Z,79.70
2018-07-26T16:24:05.569Z,80.90
2018-07-26T16:26:33.071Z,81.80
2018-07-26T16:29:00.607Z,79.30
2018-07-26T16:31:28.030Z,83.50
2018-07-26T16:33:55.432Z,83.10
2018-07-26T16:38:50.171Z,81.20
2018-07-26T16:41:17.563Z,80.10
2018-07-26T16:43:45.072Z,80.40
2018-07-26T16:46:12.452Z,83.40
2018-07-26T16:48:40.276Z,82.80
2018-07-26T16:51:07.795Z,80.60
2018-07-26T16:53:35.272Z,81.50
2018-07-26T16:56:02.750Z,81.20
2018-07-26T16:58:30.303Z,79.80
2018-07-26T17:00:57.681Z,81.60
2018-07-26T17:03:25.104Z,82.80
2018-07-26T17:05:52.542Z,83.00
2018-07-26T17:08:20.010Z,84.20
2018-07-26T17:10:47.409Z,82.70
2018-07-26T17:13:14.823Z,84.50
2018-07-26T17:15:42.261Z,85.30
2018-07-26T17:18:09.751Z,85.70
2018-07-26T17:20:37.176Z,84.90
2018-07-26T17:23:04.614Z,84.50
2018-07-26T17:25:32.130Z,84.50
2018-07-26T17:27:59.654Z,83.90
2018-07-26T17:30:27.056Z,83.50
2018-07-26T17:32:54.524Z,84.50
2018-07-26T17:35:21.963Z,83.80
2018-07-26T17:37:49.904Z,84.50
2018-07-26T17:40:17.398Z,84.80
2018-07-26T17:42:44.921Z,85.30
2018-07-26T17:45:12.365Z,86.70
2018-07-26T17:47:39.998Z,86.90
2018-07-26T17:50:09.367Z,87.80
2018-07-26T17:52:36.775Z,86.30
2018-07-26T17:55:04.780Z,87.00
2018-07-26T17:57:32.143Z,87.10
2018-07-26T17:59:59.618Z,87.30
2018-07-26T18:02:27.160Z,86.30
2018-07-26T18:04:54.690Z,89.10
2018-07-26T18:07:22.158Z,88.20
2018-07-26T18:09:49.780Z,87.30
2018-07-26T18:12:17.159Z,86.40
2018-07-26T18:14:44.842Z,87.00
2018-07-26T18:17:12.290Z,88.40
2018-07-26T18:19:39.713Z,88.30
2018-07-26T18:22:07.204Z,88.00
2018-07-26T18:24:34.677Z,88.50
2018-07-26T18:27:02.191Z,89.60
2018-07-26T18:29:29.591Z,89.20
2018-07-26T18:31:57.014Z,90.10
2018-07-26T18:34:24.508Z,90.00
2018-07-26T18:36:51.992Z,90.40
2018-07-26T18:39:19.376Z,89.80
2018-07-26T18:41:46.922Z,88.80
2018-07-26T18:44:14.438Z,90.80
2018-07-26T18:46:41.851Z,90.10
2018-07-26T18:49:09.410Z,91.00
2018-07-26T18:51:36.827Z,90.70
2018-07-26T18:54:04.692Z,90.80
2018-07-26T18:56:32.177Z,91.80
2018-07-26T18:58:59.594Z,92.10
2018-07-26T19:03:54.456Z,92.50
2018-07-26T19:06:21.908Z,92.60
2018-07-26T19:08:49.474Z,93.80
2018-07-26T19:11:16.902Z,94.40
2018-07-26T19:13:44.323Z,94.00
2018-07-26T19:16:11.735Z,93.70
2018-07-26T19:18:39.215Z,94.40
2018-07-26T19:21:07.435Z,94.40
2018-07-26T19:23:34.901Z,93.80
2018-07-26T19:26:02.426Z,93.50
2018-07-26T19:28:29.865Z,96.20
2018-07-26T19:30:57.314Z,94.30
2018-07-26T19:33:24.787Z,94.30
2018-07-26T19:35:52.240Z,93.50
2018-07-26T19:38:19.629Z,93.00
2018-07-26T19:40:47.084Z,93.40
2018-07-26T19:43:14.532Z,93.10
2018-07-26T19:45:41.986Z,94.30
2018-07-26T19:48:09.488Z,94.40
2018-07-26T19:50:36.958Z,92.80
2018-07-26T19:53:04.458Z,93.80
2018-07-26T19:55:32.604Z,93.00
2018-07-26T19:58:00.518Z,92.70
2018-07-26T20:00:27.938Z,94.50
2018-07-26T20:02:55.346Z,93.90
2018-07-26T20:05:22.798Z,93.30
2018-07-26T20:10:17.548Z,93.60
2018-07-26T20:12:44.956Z,93.40
2018-07-26T20:15:12.324Z,93.20
2018-07-26T20:17:39.772Z,92.50
2018-07-26T20:20:08.228Z,92.90
2018-07-26T20:22:35.812Z,92.30
2018-07-26T20:25:03.624Z,93.30
2018-07-26T20:27:31.013Z,92.40
2018-07-26T20:29:58.461Z,93.70
2018-07-26T20:32:25.879Z,94.20
2018-07-26T20:34:54.055Z,94.40
2018-07-26T20:37:21.565Z,94.50
2018-07-26T20:39:48.958Z,94.40
2018-07-26T20:42:16.297Z,95.00
2018-07-26T20:44:45.290Z,94.90
2018-07-26T20:47:12.782Z,94.70
2018-07-26T20:52:07.740Z,95.30
2018-07-26T20:54:35.178Z,95.20
2018-07-26T20:57:02.840Z,95.40
2018-07-26T21:01:57.883Z,95.80
2018-07-26T21:04:25.341Z,95.30
2018-07-26T21:06:52.887Z,95.50
2018-07-26T21:09:20.311Z,95.10
2018-07-26T21:11:47.868Z,95.40
2018-07-26T21:14:15.282Z,94.80
2018-07-26T21:19:10.093Z,95.20
2018-07-26T21:21:45.262Z,95.00
2018-07-26T21:24:30.147Z,95.30
2018-07-26T21:27:16.611Z,95.30
2018-07-26T21:30:09.698Z,94.70
2018-07-26T21:32:37.909Z,94.20
2018-07-26T21:35:06.086Z,94.80
2018-07-26T21:37:33.482Z,95.10
2018-07-26T21:40:00.912Z,95.60
2018-07-26T21:42:28.305Z,94.70
2018-07-26T21:44:55.764Z,95.70
2018-07-26T21:47:23.246Z,94.60
2018-07-26T21:49:50.618Z,95.00
2018-07-26T21:52:18.180Z,95.00
2018-07-26T21:54:45.597Z,94.60
2018-07-26T21:57:12.966Z,94.70
2018-07-26T21:59:40.339Z,94.80
2018-07-26T22:02:07.886Z,94.90
2018-07-26T22:04:35.344Z,95.00
2018-07-26T22:07:02.832Z,95.40
2018-07-26T22:09:30.400Z,96.30
2018-07-26T22:14:25.143Z,96.90
2018-07-26T22:16:52.504Z,96.50
2018-07-26T22:19:19.907Z,97.30
2018-07-26T22:21:47.312Z,96.50
2018-07-26T22:24:14.821Z,97.20
2018-07-26T22:26:42.266Z,97.00
2018-07-26T22:29:09.718Z,97.30
2018-07-26T22:34:04.466Z,96.50
2018-07-26T22:36:31.974Z,97.30
2018-07-26T22:38:59.350Z,97.20
2018-07-26T22:41:26.758Z,97.70
2018-07-26T22:43:54.128Z,97.80
2018-07-26T22:46:21.518Z,98.10
2018-07-26T22:48:48.909Z,98.30
2018-07-26T22:51:16.226Z,98.60
2018-07-26T22:53:43.625Z,99.00
2018-07-26T22:56:11.086Z,99.00
2018-07-26T22:58:38.397Z,99.30
2018-07-26T23:01:05.843Z,99.20
2018-07-26T23:03:33.389Z,99.50
2018-07-26T23:06:00.723Z,99.00
2018-07-26T23:08:28.107Z,99.50
2018-07-26T23:10:55.445Z,99.40
2018-07-26T23:13:22.801Z,99.10
2018-07-26T23:15:50.244Z,99.70
2018-07-26T23:18:17.735Z,99.90
2018-07-26T23:20:45.242Z,99.90
2018-07-26T23:23:12.664Z,99.90
2018-07-26T23:25:40.105Z,99.90
2018-07-26T23:28:07.494Z,99.90
2018-07-26T23:30:34.778Z,99.90
2018-07-26T23:33:02.139Z,99.90
2018-07-26T23:35:29.572Z,99.90
2018-07-26T23:37:56.848Z,99.90
2018-07-26T23:40:24.201Z,99.90
2018-07-26T23:42:51.960Z,99.90
2018-07-26T23:45:19.442Z,99.90
2018-07-26T23:47:46.794Z,99.90
2018-07-26T23:50:14.226Z,99.90
2018-07-26T23:52:41.556Z,99.90
2018-07-26T23:55:08.882Z,99.90
2018-07-26T23:57:36.335Z,99.90
